ePrivacy and GPDR Cookie Consent by Cookie Consent
EmailTwitter


Observations de surface / Québec / CYUL (71627)

Régions: Québec | Canada | États-Unis | Europe | France | UK | Ailleurs
Station
Affichage
Infos & localisation pour CYUL (71627) | Aide pour décoder les METARs

Observations prises le 2022-12-07 à 16H00 UTC à MONTREAL INTL A, QB (CYUL)

Etat du ciel: couvert.

Obstacle(s) à la visibilité: faible bruine et brume.

Température: 9.0 Celsius

Point de rosée: 9.0 Celsius

Humidité relative: 100%

Facteur vent 6.

Vents: Sud-ouest à 19 km/h ou 10 noeuds.

Pression au niveau moyen de la mer: 101.89 kilopascals.

Calage altimétrique: 101.86 kilopascals ou 30.08 pouces de mercure.

Visibilité horizontale: 6.00 milles terrestres ou 9.60 kilomètres.

Hauteur du plafond: 91 mètres ( 300 pieds ).

Observation METAR:

CYUL 071600Z 22010KT 6SM -DZ BR BKN003 OVC012 09/09 A3008 RMK SF6SC2 SLP189=